Time;durP1;ratioP1;P1;durP2;ratioP2;P2;SDS_P1;SDS_P2;PMS_P1;PMS_P2;Temp;Humidity;BMP_temperature;BMP_pressure;BME280_temperature;BME280_humidity;BME280_pressure;Samples;Min_cycle;Max_cycle;Signal;HPM_P1;HPM_P2
2021/03/26 00:00:44;;;;;;;45.22;25.00;;;5.10;92.70;;;;;;4953409;29;20031;-85
2021/03/26 00:03:16;;;;;;;43.42;23.88;;;5.10;92.80;;;;;;4938072;29;20487;-86
2021/03/26 00:05:42;;;;;;;43.00;25.60;;;5.10;92.90;;;;;;4936723;29;20065;-86
2021/03/26 00:08:10;;;;;;;41.58;24.67;;;5.10;92.90;;;;;;4939107;29;20027;-86
2021/03/26 00:10:36;;;;;;;41.03;24.15;;;5.10;93.00;;;;;;4940163;28;20038;-86
2021/03/26 00:13:02;;;;;;;42.95;25.25;;;5.10;93.10;;;;;;4956041;29;20027;-86
2021/03/26 00:15:27;;;;;;;50.90;25.05;;;5.20;93.10;;;;;;4944517;29;20920;-85
2021/03/26 00:17:53;;;;;;;47.47;26.58;;;5.20;93.20;;;;;;4955020;29;20038;-83
2021/03/26 00:20:19;;;;;;;46.97;26.15;;;5.20;93.20;;;;;;4955242;29;20126;-84
2021/03/26 00:22:44;;;;;;;48.63;28.40;;;5.30;93.30;;;;;;4951750;29;20611;-84
2021/03/26 00:25:11;;;;;;;47.17;26.08;;;5.30;93.30;;;;;;4940038;29;20063;-84
2021/03/26 00:27:36;;;;;;;42.90;24.48;;;5.30;93.30;;;;;;4937665;29;20036;-85
2021/03/26 00:30:06;;;;;;;40.78;25.00;;;5.30;93.40;;;;;;4934735;29;20071;-85
2021/03/26 00:32:32;;;;;;;43.65;24.23;;;5.40;93.40;;;;;;4938274;29;20122;-85
2021/03/26 00:34:57;;;;;;;52.78;28.20;;;5.40;93.40;;;;;;4936165;29;20119;-85
2021/03/26 00:37:23;;;;;;;45.95;27.48;;;5.40;93.50;;;;;;4937102;29;20114;-85
2021/03/26 00:39:49;;;;;;;54.17;28.30;;;5.40;93.50;;;;;;4939207;29;20047;-85
2021/03/26 00:42:15;;;;;;;45.33;26.88;;;5.40;93.60;;;;;;4939763;29;20058;-85
2021/03/26 00:44:41;;;;;;;47.33;27.38;;;5.50;93.70;;;;;;4937874;29;20027;-84
2021/03/26 00:47:06;;;;;;;49.20;28.98;;;5.50;93.60;;;;;;4936584;29;20131;-85
2021/03/26 00:49:32;;;;;;;50.53;28.00;;;5.50;93.70;;;;;;4934304;29;20042;-86
2021/03/26 00:51:57;;;;;;;49.60;27.42;;;5.50;93.80;;;;;;4949800;29;20059;-85
2021/03/26 00:54:23;;;;;;;49.78;27.38;;;5.60;93.80;;;;;;4938131;29;20041;-85
2021/03/26 00:56:48;;;;;;;50.30;26.98;;;5.60;93.90;;;;;;4925768;29;20403;-85
2021/03/26 00:59:14;;;;;;;49.67;27.65;;;5.60;93.90;;;;;;4937026;29;20055;-85
2021/03/26 01:01:40;;;;;;;42.67;26.30;;;5.60;94.00;;;;;;4944397;29;20500;-85
2021/03/26 01:04:06;;;;;;;49.55;28.30;;;5.60;94.10;;;;;;4937593;29;20047;-85
2021/03/26 01:06:32;;;;;;;44.42;26.40;;;5.50;94.10;;;;;;4939207;29;20035;-84
2021/03/26 01:08:58;;;;;;;46.60;26.23;;;5.50;94.10;;;;;;4955454;28;20086;-85
2021/03/26 01:11:28;;;;;;;46.90;28.60;;;5.50;94.20;;;;;;4954414;28;20019;-85
2021/03/26 01:13:56;;;;;;;47.33;26.52;;;5.50;94.30;;;;;;4950383;29;20054;-85
2021/03/26 01:16:22;;;;;;;45.88;25.92;;;5.50;94.40;;;;;;4950745;29;20074;-84
2021/03/26 01:18:48;;;;;;;41.47;25.10;;;5.50;94.40;;;;;;4938480;29;20567;-84
2021/03/26 01:21:18;;;;;;;50.03;27.75;;;5.50;94.50;;;;;;4943929;29;20051;-85
2021/03/26 01:23:44;;;;;;;44.70;26.02;;;5.60;94.50;;;;;;4955494;29;20507;-85
2021/03/26 01:26:10;;;;;;;45.10;26.90;;;5.60;94.60;;;;;;4939403;29;20399;-85
2021/03/26 01:28:36;;;;;;;45.88;26.50;;;5.70;94.70;;;;;;4934046;29;20024;-85
2021/03/26 01:31:03;;;;;;;45.22;26.55;;;5.80;94.70;;;;;;4938588;29;20091;-85
2021/03/26 01:33:28;;;;;;;47.55;27.23;;;5.90;94.70;;;;;;4937919;29;20491;-85
2021/03/26 01:35:55;;;;;;;46.92;28.42;;;5.90;94.70;;;;;;4943110;29;20042;-85
2021/03/26 01:38:21;;;;;;;44.25;26.33;;;5.90;94.70;;;;;;4948634;29;20038;-84
2021/03/26 01:40:53;;;;;;;42.67;25.00;;;6.00;94.60;;;;;;4946199;29;20039;-84
2021/03/26 01:43:25;;;;;;;55.35;27.63;;;5.90;94.60;;;;;;4952071;29;20031;-84
2021/03/26 01:45:52;;;;;;;48.63;27.45;;;5.90;94.70;;;;;;4955522;29;20459;-83
2021/03/26 01:48:33;;;;;;;46.60;27.45;;;5.90;94.70;;;;;;4960582;29;20064;-84
2021/03/26 01:51:00;;;;;;;47.42;27.15;;;5.90;94.70;;;;;;4952840;29;20036;-84
2021/03/26 01:53:26;;;;;;;52.42;28.75;;;5.80;94.70;;;;;;4947811;29;20098;-84
2021/03/26 01:55:54;;;;;;;45.90;26.65;;;5.80;94.80;;;;;;4933904;29;20491;-84
2021/03/26 01:58:22;;;;;;;49.25;26.63;;;5.80;94.80;;;;;;4944905;29;20039;-84
2021/03/26 02:00:53;;;;;;;43.88;25.58;;;5.80;94.80;;;;;;4949027;29;20162;-87
2021/03/26 02:03:29;;;;;;;49.55;27.80;;;5.80;94.90;;;;;;4942734;29;20126;-86
2021/03/26 02:05:57;;;;;;;54.03;28.92;;;5.80;94.90;;;;;;4939430;29;20047;-84
2021/03/26 02:08:28;;;;;;;47.75;27.80;;;5.80;94.80;;;;;;4937618;29;20038;-84
2021/03/26 02:11:14;;;;;;;49.47;28.38;;;5.80;94.80;;;;;;4937840;28;20497;-84
2021/03/26 02:13:40;;;;;;;50.20;26.75;;;5.70;94.80;;;;;;4954887;29;20492;-85
2021/03/26 02:16:07;;;;;;;46.80;25.10;;;5.70;94.90;;;;;;4947492;28;20032;-84
2021/03/26 02:18:37;;;;;;;52.92;30.08;;;5.70;94.90;;;;;;4948264;29;20030;-85
2021/03/26 02:21:13;;;;;;;49.67;27.35;;;5.70;95.00;;;;;;4944646;29;20503;-85
2021/03/26 02:23:39;;;;;;;55.85;28.85;;;5.70;95.00;;;;;;4951540;28;20042;-85
2021/03/26 02:26:16;;;;;;;52.58;30.10;;;5.70;95.00;;;;;;4937486;29;20423;-85
2021/03/26 02:28:41;;;;;;;51.42;28.38;;;5.70;95.00;;;;;;4937227;29;20030;-85
2021/03/26 02:31:07;;;;;;;53.83;29.70;;;5.70;95.10;;;;;;4953467;29;20031;-85
2021/03/26 02:33:33;;;;;;;50.42;30.00;;;5.60;95.10;;;;;;4954329;29;20526;-85
2021/03/26 02:36:17;;;;;;;63.58;32.00;;;5.70;95.10;;;;;;4937636;29;20035;-85
2021/03/26 02:38:46;;;;;;;60.13;31.38;;;5.60;95.10;;;;;;4947840;29;20492;-85
2021/03/26 02:41:23;;;;;;;60.05;32.53;;;5.60;95.10;;;;;;4937558;29;20114;-85
2021/03/26 02:44:04;;;;;;;60.53;32.70;;;5.60;95.20;;;;;;4951049;28;20024;-85
2021/03/26 02:46:37;;;;;;;58.65;33.38;;;5.60;95.30;;;;;;4937384;29;20090;-85
2021/03/26 02:49:19;;;;;;;56.08;31.00;;;5.70;95.40;;;;;;4937967;29;20502;-84
2021/03/26 02:51:47;;;;;;;54.03;32.70;;;5.70;95.40;;;;;;4951391;29;20031;-85
2021/03/26 02:54:41;;;;;;;59.85;32.17;;;5.80;95.40;;;;;;4953386;29;20388;-85
2021/03/26 02:57:12;;;;;;;59.45;33.78;;;5.90;95.50;;;;;;4936388;29;20077;-86
2021/03/26 02:59:50;;;;;;;59.15;31.63;;;6.00;95.40;;;;;;4932423;29;20023;-87
2021/03/26 03:02:18;;;;;;;58.38;31.88;;;6.00;95.40;;;;;;4928191;29;20059;-87
2021/03/26 03:04:49;;;;;;;57.00;32.15;;;6.00;95.40;;;;;;4935390;29;20039;-86
2021/03/26 03:07:36;;;;;;;63.30;33.07;;;6.00;95.40;;;;;;4930640;29;20062;-85
2021/03/26 03:10:19;;;;;;;60.00;31.60;;;6.00;95.40;;;;;;4935934;29;20691;-85
2021/03/26 03:12:45;;;;;;;;;;;6.00;95.50;;;;;;4938830;28;20087;-85
2021/03/26 03:15:44;;;;;;;58.13;31.83;;;6.00;95.50;;;;;;4933408;29;20294;-85
2021/03/26 03:18:17;;;;;;;60.22;32.13;;;6.00;95.60;;;;;;4934896;29;20566;-85
2021/03/26 03:20:52;;;;;;;64.05;34.72;;;6.00;95.60;;;;;;4949517;29;20094;-85
2021/03/26 03:23:30;;;;;;;63.25;33.22;;;6.10;95.70;;;;;;4936731;29;20034;-85
2021/03/26 03:26:03;;;;;;;65.72;34.67;;;6.10;95.60;;;;;;4947545;29;20091;-85
2021/03/26 03:28:54;;;;;;;66.43;36.20;;;6.20;95.70;;;;;;4951533;28;20027;-85
2021/03/26 03:31:59;;;;;;;65.43;35.13;;;6.30;95.70;;;;;;4946395;28;20035;-85
2021/03/26 03:34:35;;;;;;;60.55;33.40;;;6.40;95.70;;;;;;4936494;29;20050;-85
2021/03/26 03:37:23;;;;;;;69.32;35.55;;;6.40;95.70;;;;;;4945286;29;20486;-85
2021/03/26 03:40:03;;;;;;;61.10;34.63;;;6.40;95.60;;;;;;4950981;29;20042;-86
2021/03/26 03:42:56;;;;;;;64.45;35.05;;;6.40;95.60;;;;;;4957764;29;20043;-85
2021/03/26 03:45:32;;;;;;;62.95;35.13;;;6.40;95.60;;;;;;4955744;29;20035;-85
2021/03/26 03:48:09;;;;;;;59.65;33.20;;;6.50;95.70;;;;;;4949742;29;20059;-85
2021/03/26 03:50:51;;;;;;;63.97;34.80;;;6.50;95.70;;;;;;4948034;28;20028;-85
2021/03/26 03:53:28;;;;;;;57.90;33.05;;;6.50;95.70;;;;;;4947204;29;20032;-85
2021/03/26 03:56:00;;;;;;;66.85;36.92;;;6.50;95.80;;;;;;4952250;29;20043;-85
2021/03/26 03:58:31;;;;;;;66.13;35.70;;;6.60;95.80;;;;;;4955577;29;20086;-86
2021/03/26 04:01:16;;;;;;;63.25;34.00;;;6.60;95.80;;;;;;4951201;29;20039;-85
2021/03/26 04:03:59;;;;;;;64.13;35.53;;;6.60;95.80;;;;;;4954117;29;20052;-85
2021/03/26 04:06:45;;;;;;;63.90;34.00;;;6.70;95.80;;;;;;4941416;29;20035;-85
2021/03/26 04:09:14;;;;;;;63.88;35.10;;;6.80;95.70;;;;;;4945508;28;20051;-85
2021/03/26 04:11:48;;;;;;;61.00;33.65;;;6.80;95.70;;;;;;4954148;28;20019;-85
2021/03/26 04:14:19;;;;;;;64.78;35.47;;;6.80;95.70;;;;;;4948703;28;20072;-84
2021/03/26 04:16:51;;;;;;;61.47;33.90;;;6.80;95.70;;;;;;4934466;29;20507;-85
2021/03/26 04:19:24;;;;;;;64.97;35.67;;;6.90;95.70;;;;;;4936385;29;20475;-85
2021/03/26 04:21:55;;;;;;;70.10;37.38;;;6.90;95.60;;;;;;4950625;29;20054;-85
2021/03/26 04:24:33;;;;;;;61.72;33.08;;;6.90;95.60;;;;;;4938666;29;20031;-85
2021/03/26 04:27:11;;;;;;;65.05;33.80;;;6.90;95.50;;;;;;4937617;29;20058;-85
2021/03/26 04:29:48;;;;;;;65.80;34.13;;;6.90;95.50;;;;;;4945594;29;20024;-85
2021/03/26 04:32:16;;;;;;;62.83;33.00;;;6.90;95.50;;;;;;4937654;29;20031;-85
2021/03/26 04:34:43;;;;;;;66.60;35.40;;;6.90;95.40;;;;;;4936143;29;20027;-85
2021/03/26 04:37:28;;;;;;;71.68;36.53;;;6.80;95.40;;;;;;4939719;29;20082;-85
2021/03/26 04:40:01;;;;;;;65.82;35.50;;;6.80;95.40;;;;;;4934681;29;20063;-85
2021/03/26 04:42:35;;;;;;;69.30;35.72;;;6.80;95.40;;;;;;4930368;29;20031;-85
2021/03/26 04:45:11;;;;;;;58.03;32.55;;;6.80;95.40;;;;;;4937702;29;20038;-85
2021/03/26 04:47:58;;;;;;;59.72;33.97;;;6.80;95.40;;;;;;4937911;29;20507;-85
2021/03/26 04:50:31;;;;;;;57.47;32.88;;;6.90;95.40;;;;;;4924951;29;20027;-85
2021/03/26 04:53:03;;;;;;;60.70;32.85;;;6.80;95.40;;;;;;4947875;29;20022;-85
2021/03/26 04:55:36;;;;;;;64.55;34.63;;;6.90;95.40;;;;;;4933363;29;20031;-85
2021/03/26 04:58:16;;;;;;;57.03;32.15;;;6.90;95.40;;;;;;4939095;29;20085;-85
2021/03/26 05:00:48;;;;;;;60.13;31.98;;;6.90;95.40;;;;;;4933525;29;20071;-85
2021/03/26 05:03:32;;;;;;;60.90;33.15;;;6.90;95.30;;;;;;4938400;29;20051;-85
2021/03/26 05:06:07;;;;;;;62.88;32.13;;;6.90;95.30;;;;;;4936720;29;20063;-85
2021/03/26 05:08:34;;;;;;;60.90;33.10;;;6.90;95.30;;;;;;4947515;29;20058;-85
2021/03/26 05:11:02;;;;;;;62.25;32.70;;;7.00;95.40;;;;;;4937788;29;20173;-85
2021/03/26 05:13:32;;;;;;;53.70;30.40;;;7.00;95.40;;;;;;4949638;29;20540;-85
2021/03/26 05:16:02;;;;;;;58.72;31.30;;;7.10;95.30;;;;;;4946349;29;20058;-85
2021/03/26 05:18:35;;;;;;;58.95;31.27;;;7.10;95.20;;;;;;4937598;29;20027;-85
2021/03/26 05:21:09;;;;;;;55.10;30.42;;;7.10;95.20;;;;;;4938752;29;20039;-85
2021/03/26 05:23:59;;;;;;;58.80;31.42;;;7.20;95.20;;;;;;4954099;29;20024;-85
2021/03/26 05:26:26;;;;;;;54.78;29.73;;;7.20;95.10;;;;;;4936590;29;20030;-85
2021/03/26 05:28:52;;;;;;;56.20;29.75;;;7.20;95.10;;;;;;4931862;29;20032;-85
2021/03/26 05:31:48;;;;;;;56.28;30.63;;;7.20;95.10;;;;;;4947579;29;20150;-85
2021/03/26 05:34:22;;;;;;;54.63;30.65;;;7.20;95.10;;;;;;4937905;29;20513;-85
2021/03/26 05:37:05;;;;;;;60.03;30.67;;;7.30;95.10;;;;;;4935459;29;20471;-85
2021/03/26 05:39:34;;;;;;;57.03;30.52;;;7.30;95.10;;;;;;4943017;29;20543;-84
2021/03/26 05:42:33;;;;;;;58.83;30.88;;;7.30;95.00;;;;;;4933085;29;20087;-85
2021/03/26 05:45:40;;;;;;;48.78;28.88;;;7.30;95.00;;;;;;4947277;28;20046;-86
2021/03/26 05:48:26;;;;;;;55.17;31.70;;;7.40;94.90;;;;;;4948285;29;20023;-86
2021/03/26 05:51:00;;;;;;;53.83;30.98;;;7.40;94.90;;;;;;4943292;29;20038;-86
2021/03/26 05:53:54;;;;;;;51.15;29.42;;;7.40;94.80;;;;;;4938561;29;20031;-85
2021/03/26 05:56:46;;;;;;;59.00;29.48;;;7.40;94.80;;;;;;4954178;29;20031;-86
2021/03/26 05:59:45;;;;;;;51.05;29.45;;;7.50;94.80;;;;;;4923456;29;20062;-85
2021/03/26 06:02:26;;;;;;;54.10;29.17;;;7.50;94.70;;;;;;4952209;28;20043;-85
2021/03/26 06:05:20;;;;;;;56.65;31.33;;;7.50;94.70;;;;;;4965221;28;20137;-85
2021/03/26 06:08:23;;;;;;;48.90;27.75;;;7.50;94.60;;;;;;4917799;29;20079;-85
2021/03/26 06:10:48;;;;;;;54.13;29.45;;;7.50;94.60;;;;;;4936990;29;20043;-85
2021/03/26 06:14:00;;;;;;;54.38;30.00;;;7.50;94.50;;;;;;4938436;29;20431;-86
2021/03/26 06:16:46;;;;;;;54.90;30.25;;;7.50;94.50;;;;;;4953840;28;20028;-85
2021/03/26 06:19:30;;;;;;;54.25;30.17;;;7.60;94.50;;;;;;4942884;28;20027;-85
2021/03/26 06:22:24;;;;;;;51.70;29.02;;;7.60;94.40;;;;;;4946322;28;20106;-83
2021/03/26 06:25:17;;;;;;;57.33;30.83;;;7.60;94.40;;;;;;4938532;29;20115;-86
2021/03/26 06:28:02;;;;;;;55.17;29.65;;;7.60;94.40;;;;;;4951062;28;20023;-85
2021/03/26 06:30:41;;;;;;;62.63;30.50;;;7.70;94.30;;;;;;4929585;29;20031;-86
2021/03/26 06:33:25;;;;;;;59.15;31.73;;;7.70;94.30;;;;;;4937406;29;20022;-85
2021/03/26 06:36:02;;;;;;;58.03;29.25;;;7.70;94.20;;;;;;4935555;29;20031;-85
2021/03/26 06:38:41;;;;;;;55.90;30.38;;;7.70;94.20;;;;;;4951931;29;20057;-85
2021/03/26 06:41:46;;;;;;;56.17;30.35;;;7.80;94.20;;;;;;4935021;29;20522;-85
2021/03/26 06:44:33;;;;;;;58.63;31.80;;;7.80;94.10;;;;;;4921251;29;20031;-84
2021/03/26 06:47:39;;;;;;;53.83;30.25;;;7.80;94.10;;;;;;4952008;28;20038;-85
2021/03/26 06:50:43;;;;;;;55.08;30.52;;;7.90;94.10;;;;;;4929666;29;20039;-85
2021/03/26 06:53:33;;;;;;;55.20;30.48;;;7.90;93.90;;;;;;4948711;28;20031;-85
2021/03/26 06:56:01;;;;;;;59.67;32.67;;;7.90;93.80;;;;;;4953069;28;20031;-86
2021/03/26 06:58:33;;;;;;;56.97;31.63;;;8.00;93.80;;;;;;4936774;29;20070;-85
2021/03/26 07:01:38;;;;;;;63.10;30.63;;;8.00;93.70;;;;;;4933194;29;20050;-85
2021/03/26 07:04:25;;;;;;;52.95;30.38;;;8.10;93.70;;;;;;4956273;28;20055;-86
2021/03/26 07:07:10;;;;;;;58.28;31.95;;;8.10;93.60;;;;;;4932007;29;20030;-86
2021/03/26 07:10:08;;;;;;;55.65;31.63;;;8.20;93.50;;;;;;4948448;29;20027;-85
2021/03/26 07:13:03;;;;;;;57.88;31.73;;;8.30;93.40;;;;;;4953512;29;20031;-84
2021/03/26 07:16:05;;;;;;;58.40;30.65;;;8.30;93.30;;;;;;4935622;29;20038;-84
2021/03/26 07:18:51;;;;;;;56.58;31.38;;;8.30;93.20;;;;;;4926202;29;20023;-85
2021/03/26 07:21:38;;;;;;;53.33;30.30;;;8.40;93.10;;;;;;4940111;29;20748;-85
2021/03/26 07:24:10;;;;;;;53.70;31.27;;;8.40;93.10;;;;;;4952624;28;20264;-85
2021/03/26 07:26:56;;;;;;;52.50;29.90;;;8.50;93.00;;;;;;4936832;29;20061;-86
2021/03/26 07:29:42;;;;;;;55.63;32.15;;;8.50;92.90;;;;;;4952678;28;20114;-86
2021/03/26 07:32:35;;;;;;;53.70;30.15;;;8.50;92.90;;;;;;4951150;29;20028;-86
2021/03/26 07:35:31;;;;;;;53.10;30.98;;;8.70;93.10;;;;;;4944883;29;20024;-85
2021/03/26 07:38:17;;;;;;;55.90;30.73;;;8.90;92.90;;;;;;4906237;29;20039;-85
2021/03/26 07:41:17;;;;;;;51.33;30.98;;;9.00;92.70;;;;;;4935759;29;20066;-84
2021/03/26 07:44:02;;;;;;;54.03;30.92;;;9.00;92.40;;;;;;4948735;29;20055;-84
2021/03/26 07:46:44;;;;;;;51.13;29.15;;;9.10;92.30;;;;;;4943580;29;20024;-86
2021/03/26 07:49:28;;;;;;;47.30;29.27;;;9.10;92.10;;;;;;4934705;29;20109;-84
2021/03/26 07:51:58;;;;;;;52.97;28.98;;;9.10;92.00;;;;;;4951447;29;20110;-83
2021/03/26 07:55:20;;;;;;;50.55;29.40;;;9.00;91.80;;;;;;4942136;29;20031;-85
2021/03/26 07:58:25;;;;;;;48.83;28.63;;;9.00;91.80;;;;;;4881372;29;20517;-84
2021/03/26 08:01:12;;;;;;;47.22;28.85;;;9.10;92.00;;;;;;4891805;29;20077;-85
2021/03/26 08:03:52;;;;;;;47.95;28.55;;;9.20;91.90;;;;;;4940842;29;20050;-85
2021/03/26 08:07:06;;;;;;;50.35;28.75;;;9.40;91.70;;;;;;4955153;28;20098;-84
2021/03/26 08:10:00;;;;;;;46.75;27.85;;;9.50;91.50;;;;;;4951102;28;20046;-85
2021/03/26 08:12:31;;;;;;;;;;;9.60;91.30;;;;;;4953730;28;20030;-85
2021/03/26 08:15:14;;;;;;;42.80;25.50;;;9.70;91.10;;;;;;4950348;28;19918;-85
2021/03/26 08:17:58;;;;;;;42.90;26.00;;;9.80;90.90;;;;;;4951150;28;20027;-85
2021/03/26 08:20:40;;;;;;;40.50;25.65;;;9.90;90.80;;;;;;4944824;29;20508;-85
2021/03/26 08:23:28;;;;;;;41.20;24.47;;;10.10;90.90;;;;;;4936424;29;20467;-84
2021/03/26 08:26:08;;;;;;;44.58;24.15;;;10.20;90.30;;;;;;4938937;29;20366;-85
2021/03/26 08:29:16;;;;;;;36.17;21.95;;;10.30;89.90;;;;;;4946301;29;20047;-83
2021/03/26 08:31:56;;;;;;;39.42;22.90;;;10.40;89.60;;;;;;4939489;29;20042;-83
2021/03/26 08:35:01;;;;;;;35.15;22.30;;;10.50;88.50;;;;;;4955404;28;20023;-84
2021/03/26 08:37:52;;;;;;;31.67;21.05;;;10.70;88.10;;;;;;4958892;28;20082;-84
2021/03/26 08:40:22;;;;;;;37.33;22.50;;;10.80;87.90;;;;;;4944160;29;20031;-84
2021/03/26 08:42:50;;;;;;;35.35;21.48;;;10.90;87.60;;;;;;4938745;29;20106;-84
2021/03/26 08:45:35;;;;;;;35.45;21.80;;;11.00;87.30;;;;;;4941201;29;20023;-84
2021/03/26 08:48:13;;;;;;;33.08;20.25;;;11.20;86.90;;;;;;4935151;29;20093;-84
2021/03/26 08:50:57;;;;;;;34.35;21.13;;;11.30;86.10;;;;;;4953060;28;20031;-84
2021/03/26 08:54:07;;;;;;;33.15;20.48;;;11.30;85.60;;;;;;4953344;29;20388;-84
2021/03/26 08:57:04;;;;;;;31.63;19.55;;;11.40;85.00;;;;;;4939654;28;20488;-82
2021/03/26 08:59:41;;;;;;;34.47;19.92;;;11.50;84.70;;;;;;4948237;29;20035;-84
2021/03/26 09:02:27;;;;;;;30.65;18.50;;;11.60;84.20;;;;;;4932458;29;20046;-84
2021/03/26 09:05:19;;;;;;;28.42;17.77;;;11.70;83.10;;;;;;4948651;29;20192;-83
2021/03/26 09:08:03;;;;;;;32.30;16.50;;;11.80;83.00;;;;;;4951506;28;20023;-84
2021/03/26 09:11:06;;;;;;;24.63;16.40;;;11.90;82.60;;;;;;4938706;29;20035;-84
2021/03/26 09:13:50;;;;;;;;;;;12.00;81.90;;;;;;4949514;29;20033;-84
2021/03/26 09:16:26;;;;;;;26.20;16.60;;;12.00;81.20;;;;;;4947964;29;20425;-84
2021/03/26 09:19:11;;;;;;;30.20;17.48;;;12.20;81.20;;;;;;4953664;28;20034;-84
2021/03/26 09:22:04;;;;;;;27.63;16.25;;;12.30;80.80;;;;;;4951029;29;20062;-83
2021/03/26 09:24:32;;;;;;;;;;;12.40;80.30;;;;;;4954101;29;20030;-83
2021/03/26 09:27:08;;;;;;;26.55;16.85;;;12.30;80.20;;;;;;4956259;29;19945;-84
2021/03/26 09:30:01;;;;;;;23.33;13.65;;;12.40;79.50;;;;;;4947416;28;20024;-84
2021/03/26 09:32:33;;;;;;;20.58;12.57;;;12.60;78.90;;;;;;4942447;28;20024;-83
2021/03/26 09:35:16;;;;;;;24.60;12.57;;;12.70;78.20;;;;;;4952431;29;20035;-83
2021/03/26 09:37:54;;;;;;;20.58;12.35;;;12.90;77.50;;;;;;4926971;29;20040;-84
2021/03/26 09:40:34;;;;;;;21.50;11.35;;;13.10;75.50;;;;;;4937861;29;20044;-84
2021/03/26 09:43:21;;;;;;;17.27;9.82;;;13.20;75.30;;;;;;4937743;29;20027;-83
2021/03/26 09:46:02;;;;;;;16.33;9.85;;;13.40;73.40;;;;;;4944543;29;20027;-83
2021/03/26 09:48:58;;;;;;;16.73;10.40;;;13.50;73.00;;;;;;4946631;28;20369;-84
2021/03/26 09:52:00;;;;;;;20.58;10.18;;;13.60;72.50;;;;;;4937645;29;20392;-83
2021/03/26 09:54:47;;;;;;;14.98;9.05;;;13.80;72.50;;;;;;4930547;29;20053;-84
2021/03/26 09:57:27;;;;;;;18.75;9.95;;;13.90;71.50;;;;;;4954695;29;20066;-84
2021/03/26 10:00:25;;;;;;;14.18;8.73;;;13.90;71.00;;;;;;4937361;29;20031;-84
2021/03/26 10:03:06;;;;;;;16.92;8.43;;;14.00;70.20;;;;;;4941378;29;20496;-84
2021/03/26 10:05:55;;;;;;;18.13;8.32;;;14.10;70.10;;;;;;4939656;29;20028;-84
2021/03/26 10:08:53;;;;;;;15.63;8.70;;;14.10;69.20;;;;;;4948676;29;20510;-84
2021/03/26 10:11:29;;;;;;;12.80;5.55;;;14.20;69.60;;;;;;4953255;29;20485;-84
2021/03/26 10:14:14;;;;;;;11.18;5.20;;;14.20;68.20;;;;;;4936242;29;20030;-84
2021/03/26 10:16:49;;;;;;;14.15;5.53;;;14.20;68.00;;;;;;4935682;29;20487;-85
2021/03/26 10:19:42;;;;;;;13.27;4.70;;;14.20;67.00;;;;;;4953854;28;20392;-86
2021/03/26 10:22:29;;;;;;;11.95;4.32;;;14.20;66.50;;;;;;4937895;28;20484;-85
2021/03/26 10:25:01;;;;;;;11.10;4.30;;;14.30;66.00;;;;;;4944763;29;20507;-85
2021/03/26 10:27:36;;;;;;;12.52;5.57;;;14.40;66.10;;;;;;4937332;29;20023;-83
2021/03/26 10:30:25;;;;;;;9.50;3.95;;;14.40;65.50;;;;;;4939219;29;20118;-83
2021/03/26 10:32:51;;;;;;;10.45;5.05;;;14.60;66.00;;;;;;4937021;29;20081;-85
2021/03/26 10:35:27;;;;;;;13.48;4.93;;;14.60;65.20;;;;;;4952582;29;20479;-85
2021/03/26 10:37:59;;;;;;;11.05;4.60;;;14.60;64.00;;;;;;4941717;29;20035;-83
2021/03/26 10:41:06;;;;;;;8.93;3.95;;;14.60;63.10;;;;;;4952687;28;20094;-85
2021/03/26 10:43:44;;;;;;;12.75;4.07;;;14.50;63.50;;;;;;4936791;29;20475;-85
2021/03/26 10:46:21;;;;;;;8.88;4.10;;;14.50;63.40;;;;;;4931692;29;20024;-85
2021/03/26 10:49:10;;;;;;;6.90;3.45;;;14.60;63.00;;;;;;4950834;28;20031;-84
2021/03/26 10:51:51;;;;;;;9.95;4.63;;;14.50;62.70;;;;;;4937810;29;20023;-85
2021/03/26 10:54:41;;;;;;;6.55;3.75;;;14.50;62.50;;;;;;4953982;28;20027;-85
2021/03/26 10:57:28;;;;;;;13.05;4.22;;;14.50;62.60;;;;;;4953514;28;20063;-84
2021/03/26 10:59:58;;;;;;;11.52;3.88;;;14.50;62.70;;;;;;4939771;28;20043;-85
2021/03/26 11:02:30;;;;;;;6.30;3.28;;;14.60;62.20;;;;;;4943755;29;20059;-87
2021/03/26 11:05:25;;;;;;;9.07;3.33;;;14.50;62.30;;;;;;4938685;29;20035;-86
2021/03/26 11:07:57;;;;;;;8.02;2.33;;;14.40;62.00;;;;;;4927751;29;20078;-84
2021/03/26 11:10:29;;;;;;;9.50;2.50;;;14.40;61.00;;;;;;4948367;28;20070;-85
2021/03/26 11:13:00;;;;;;;7.82;2.58;;;14.30;60.50;;;;;;4952023;29;20117;-85
2021/03/26 11:15:34;;;;;;;10.27;2.33;;;14.30;59.50;;;;;;4953794;29;20031;-85
2021/03/26 11:18:03;;;;;;;5.55;1.48;;;14.20;60.00;;;;;;4937763;29;20027;-85
2021/03/26 11:20:38;;;;;;;6.95;1.27;;;14.30;58.90;;;;;;4948241;29;20045;-84
2021/03/26 11:23:14;;;;;;;6.25;1.63;;;14.40;59.20;;;;;;4934911;29;20023;-84
2021/03/26 11:25:50;;;;;;;6.22;1.60;;;14.60;59.70;;;;;;4952361;28;20023;-85
2021/03/26 11:28:23;;;;;;;3.53;0.95;;;14.90;59.10;;;;;;4948113;28;20090;-84
2021/03/26 11:30:57;;;;;;;4.88;1.48;;;15.00;58.00;;;;;;4931700;29;20059;-85
2021/03/26 11:33:35;;;;;;;5.28;1.38;;;15.10;58.10;;;;;;4948501;29;20043;-85
2021/03/26 11:36:04;;;;;;;6.47;1.60;;;15.10;57.40;;;;;;4939624;29;20024;-85
2021/03/26 11:38:33;;;;;;;7.72;1.67;;;15.00;57.80;;;;;;4942203;28;20122;-85
2021/03/26 11:41:16;;;;;;;10.68;1.75;;;15.00;58.40;;;;;;4948261;28;20122;-85
2021/03/26 11:43:50;;;;;;;;;;;14.90;58.20;;;;;;4929068;29;20038;-85
2021/03/26 11:46:18;;;;;;;6.85;2.15;;;15.00;57.80;;;;;;4954036;28;19910;-85
2021/03/26 11:48:57;;;;;;;4.88;1.40;;;15.00;57.30;;;;;;4946859;28;20059;-85
2021/03/26 11:51:47;;;;;;;6.78;1.60;;;14.80;56.90;;;;;;4947869;29;20034;-85
2021/03/26 11:54:44;;;;;;;8.48;1.73;;;14.70;57.60;;;;;;4939099;29;20510;-86
2021/03/26 11:57:34;;;;;;;6.57;0.95;;;14.60;57.50;;;;;;4944822;29;20047;-85
2021/03/26 12:00:31;;;;;;;3.85;1.00;;;14.60;58.00;;;;;;4945076;29;20110;-83
2021/03/26 12:03:01;;;;;;;7.43;1.35;;;14.60;57.60;;;;;;4949287;29;20047;-83
2021/03/26 12:05:59;;;;;;;5.40;1.27;;;14.70;57.40;;;;;;4951477;28;20568;-84
2021/03/26 12:08:28;;;;;;;6.85;1.98;;;14.70;57.80;;;;;;4946777;28;20024;-86
2021/03/26 12:11:22;;;;;;;7.10;1.98;;;14.70;57.20;;;;;;4947049;29;20461;-86
2021/03/26 12:14:02;;;;;;;5.95;1.80;;;14.80;57.50;;;;;;4951592;29;20041;-85
2021/03/26 12:16:37;;;;;;;5.82;2.15;;;15.00;57.40;;;;;;4958286;29;20395;-83
2021/03/26 12:19:15;;;;;;;6.80;2.30;;;15.00;57.00;;;;;;4952863;29;20037;-86
2021/03/26 12:22:11;;;;;;;6.63;2.40;;;15.10;56.50;;;;;;4944687;29;20067;-85
2021/03/26 12:24:52;;;;;;;6.32;1.95;;;15.10;57.30;;;;;;4953940;29;20506;-85
2021/03/26 12:27:34;;;;;;;7.93;2.13;;;15.30;56.60;;;;;;4949912;28;20023;-84
2021/03/26 12:30:08;;;;;;;5.03;1.67;;;15.30;56.10;;;;;;4950736;29;20168;-86
2021/03/26 12:32:37;;;;;;;7.18;2.22;;;15.30;55.90;;;;;;4953747;29;20020;-85
2021/03/26 12:35:20;;;;;;;7.97;2.42;;;15.30;56.10;;;;;;4955258;29;20039;-85
2021/03/26 12:37:48;;;;;;;7.05;2.15;;;15.40;56.50;;;;;;4947752;29;20086;-85
2021/03/26 12:40:34;;;;;;;8.43;3.08;;;15.50;55.30;;;;;;4942220;29;20039;-85
2021/03/26 12:43:07;;;;;;;5.95;1.92;;;15.50;55.60;;;;;;4957515;28;20073;-84
2021/03/26 12:45:58;;;;;;;8.90;2.17;;;15.60;55.70;;;;;;4959521;28;20054;-83
2021/03/26 12:48:40;;;;;;;6.38;2.25;;;15.60;55.20;;;;;;4956593;29;20054;-86
2021/03/26 12:51:34;;;;;;;4.40;2.08;;;15.60;54.30;;;;;;4943631;29;20027;-86
2021/03/26 12:54:02;;;;;;;7.40;1.95;;;15.60;55.20;;;;;;4939536;29;20030;-86
2021/03/26 12:56:40;;;;;;;6.75;2.67;;;15.60;54.80;;;;;;4938482;29;20400;-83
2021/03/26 12:59:23;;;;;;;9.55;2.20;;;15.60;54.80;;;;;;4952804;28;20562;-86
2021/03/26 13:02:18;;;;;;;6.95;2.10;;;15.60;54.60;;;;;;4959361;29;20406;-85
2021/03/26 13:05:05;;;;;;;3.85;1.80;;;15.70;55.20;;;;;;4954602;28;20047;-83
2021/03/26 13:08:04;;;;;;;5.47;1.95;;;15.70;54.50;;;;;;4937471;29;20126;-85
2021/03/26 13:10:54;;;;;;;11.00;1.88;;;15.80;54.60;;;;;;4941697;29;20031;-85
2021/03/26 13:13:56;;;;;;;6.65;2.15;;;15.90;54.00;;;;;;4938395;29;20122;-85
2021/03/26 13:17:00;;;;;;;6.20;2.15;;;16.00;53.90;;;;;;4945493;29;20060;-86
2021/03/26 13:19:32;;;;;;;6.70;2.38;;;16.00;52.60;;;;;;4938561;29;20038;-86
2021/03/26 13:22:07;;;;;;;4.50;1.92;;;15.80;53.10;;;;;;4940094;29;20039;-85
2021/03/26 13:24:55;;;;;;;4.00;1.42;;;15.60;53.60;;;;;;4955634;29;20562;-86
2021/03/26 13:27:20;;;;;;;10.05;3.05;;;15.70;54.10;;;;;;4942154;29;20066;-86
2021/03/26 13:30:11;;;;;;;8.82;2.33;;;15.70;53.30;;;;;;4942158;29;20019;-86
2021/03/26 13:32:58;;;;;;;6.00;1.27;;;15.70;54.10;;;;;;4954340;28;20190;-86
2021/03/26 13:35:32;;;;;;;3.85;1.50;;;16.00;53.80;;;;;;4955296;29;20114;-86
2021/03/26 13:38:15;;;;;;;5.75;1.00;;;16.10;52.00;;;;;;4939982;29;20027;-84
2021/03/26 13:40:44;;;;;;;3.20;0.90;;;16.10;51.50;;;;;;4958803;29;20063;-84
2021/03/26 13:43:25;;;;;;;5.57;1.30;;;16.00;52.00;;;;;;4949150;29;20130;-83